Share

Neligh, NE

KNENELIG1 Elev 1750 ft | 42.13 °N, 98.03 °W | Change Station

Current weather conditions updated 1 minute ago

Clear
Clear
63.8 °F
Feels Like 63.8 °F
N
1.0
Wind Variable Wind from NE
Gusts 3.0 mph
Sunrise 6:45 AM
Sunset 8:17 PM
Moon Waning Gibbous

Tomorrow is forecast to be Warmer than today. Thunderstorms early tomorrow night.

Pressure 30.01 in
Visibility 10.0 miles
Clouds Clear
Dew Point 45 °F
Humidity 51%
Rainfall -999.00 in
Snow Depth Not available.
UV 0 out of 16
Pollen 11.00 out of 12
Air Quality Not available.
Flu Activity Sporadic
METAR KONL 200135Z AUTO 01004KT 10SM CLR 15/02 A3001 RMK AO2 T01520020

More Conditions Fewer Conditions

Pressure 30.01 in
Visibility 10.0 miles
Clouds Clear
Dew Point 45 °F
Humidity 51%
Rainfall -999.00 in
Snow Depth Not available.
UV 0 out of 16
Pollen 11.00 out of 12
Air Quality Not available.
Flu Activity Sporadic
METAR KONL 200135Z AUTO 01004KT 10SM CLR 15/02 A3001 RMK AO2 T01520020

More Conditions Fewer Conditions

10-Day Weather Forecast

Almanac

Astronomy

Apr. 19, 2014 Rise Set
Actual Time 6:45 AM CDT 8:17 PM CDT
Civil Twilight 6:15 AM CDT 8:47 PM CDT
Nautical Twilight 5:40 AM CDT 9:23 PM CDT
Astronomical Twilight 5:02 AM CDT 10:01 PM CDT
Moon 12:05 AM CDT (4/19) 10:02 AM CDT (4/19)
Length of Visible Light 14h 31m
Length of Day
13h 32m
Tomorrow will be 2m 39s longer.
Waning Gibbous, 75% of the Moon is Illuminated
Today
Waning Gibbous
Apr 22
Last Quarter
Apr 29
New
May 6
First Quarter
May 14
Full

Today's Extremes

State Highs State Lows

Community

  • Cherry Blossoms
    Cherry Blossoms
  • White-Crowned Sparrow
    White-Crowned Sparrow
  • New Day
    New Day
  • Happy Easter!
    Happy Easter!
  • poppy bloom near Mazar-e-Sharif
    poppy bloom near Mazar-e-Sharif

WunderPhotos

Upload Photos

1,703,027 photos uploaded!

WunderBlogs® & News

By Dr. Jeff Masters
Director of Meteorology, Weather Underground
By Kari Strenfel
Meteorologist, Weather Underground
By Christopher C. Burt
Weather Historian, Weather Underground
April 19, 2014
April 19, 2014
April 19, 2014

Nearby

Snow Depth

Station Depth Elevation
No new snow has been reported.

Coastal Water Temperatures

Place Temperature
No Stations Reporting

Earthquake Activity

City Distance Mag. Time & Date
No recent earthquake activity has been reported nearby.
Minimum magnitude displayed is 2.5.

Nearby Weather Stations

Station Location Temp. Dew Point Humidity Wind Precip. Elev Updated Type
Neligh, NE 63.8 °F 45 °F 51% NE  at  1.0 mph 0.00 in / hr 1750 ft 8:50 PM CDT Normal
Ewing, NE 59.4 °F 41 °F 50% NE  at  0.0 mph 0.00 in / hr 1929 ft 8:50 PM CDT Normal
Deloit 12 south 2 west of Ewing, Ewing, NE 61.2 °F 46 °F 58% ENE  at  2.0 mph 0.00 in / hr 1965 ft 8:52 PM CDT Rapid Fire

Show More Stations Show Fewer Stations

What do you think?

We're not finished. Please let us know what you like, what you don't like, and what you are still missing.